createdAt,value
2018-06-12T00:01:56.405Z,24.13
2018-06-12T00:04:51.265Z,22.90
2018-06-12T00:07:52.063Z,23.50
2018-06-12T00:22:59.696Z,24.07
2018-06-12T00:46:15.521Z,23.30
2018-06-12T00:48:48.521Z,24.93
2018-06-12T01:13:13.616Z,23.30
2018-06-12T01:15:48.947Z,22.53
2018-06-12T01:18:25.527Z,21.87
2018-06-12T01:20:58.058Z,21.77
2018-06-12T01:23:30.997Z,23.63
2018-06-12T01:26:03.149Z,24.30
2018-06-12T01:28:37.089Z,23.23
2018-06-12T01:31:14.326Z,25.17
2018-06-12T01:33:51.324Z,22.80
2018-06-12T01:36:24.823Z,24.80
2018-06-12T01:38:56.933Z,26.03
2018-06-12T01:41:28.208Z,22.53
2018-06-12T01:44:04.165Z,25.30
2018-06-12T01:46:37.538Z,23.77
2018-06-12T01:49:11.716Z,24.10
2018-06-12T01:51:44.759Z,23.37
2018-06-12T01:54:19.101Z,21.97
2018-06-12T01:56:53.421Z,22.13
2018-06-12T01:59:28.429Z,24.17
2018-06-12T02:02:04.021Z,23.27
2018-06-12T02:04:38.847Z,23.40
2018-06-12T02:07:11.100Z,22.73
2018-06-12T02:09:41.562Z,22.30
2018-06-12T02:12:13.636Z,20.53
2018-06-12T02:14:45.861Z,21.20
2018-06-12T02:17:19.472Z,20.10
2018-06-12T02:19:53.101Z,21.77
2018-06-12T02:22:25.120Z,22.87
2018-06-12T02:25:01.488Z,23.23
2018-06-12T02:27:35.710Z,21.30
2018-06-12T02:30:09.144Z,23.63
2018-06-12T02:32:41.927Z,22.80
2018-06-12T02:35:16.850Z,23.23
2018-06-12T02:37:48.753Z,22.30
2018-06-12T02:40:23.292Z,22.30
2018-06-12T02:42:56.912Z,23.40
2018-06-12T02:45:29.766Z,21.80
2018-06-12T02:48:03.042Z,21.20
2018-06-12T02:50:36.719Z,23.07
2018-06-12T02:53:14.762Z,23.47
2018-06-12T02:55:48.556Z,24.50
2018-06-12T02:58:20.502Z,22.07
2018-06-12T03:00:52.771Z,22.93
2018-06-12T03:03:23.685Z,23.80
2018-06-12T03:05:54.532Z,22.90
2018-06-12T03:08:27.931Z,24.00
2018-06-12T03:10:59.891Z,25.17
2018-06-12T03:13:32.170Z,24.80
2018-06-12T03:16:03.435Z,25.03
2018-06-12T03:18:37.518Z,24.07
2018-06-12T03:21:12.297Z,24.27
2018-06-12T03:23:44.910Z,24.60
2018-06-12T03:26:17.746Z,29.20
2018-06-12T03:28:50.895Z,25.77
2018-06-12T03:31:23.392Z,27.80
2018-06-12T03:33:57.079Z,24.33
2018-06-12T03:36:29.350Z,27.80
2018-06-12T03:39:02.964Z,26.33
2018-06-12T03:41:35.959Z,28.83
2018-06-12T03:44:08.787Z,26.17
2018-06-12T03:46:41.167Z,27.90
2018-06-12T03:49:13.513Z,29.20
2018-06-12T03:51:45.316Z,29.00
2018-06-12T03:54:17.656Z,29.70
2018-06-12T03:56:49.745Z,32.43
2018-06-12T03:59:25.036Z,30.97
2018-06-12T04:01:57.085Z,31.70
2018-06-12T04:04:29.265Z,30.10
2018-06-12T04:07:05.766Z,33.63
2018-06-12T04:09:37.750Z,32.90
2018-06-12T04:12:10.242Z,33.87
2018-06-12T04:14:42.411Z,32.67
2018-06-12T04:17:15.811Z,30.53
2018-06-12T04:19:48.835Z,30.97
2018-06-12T04:22:21.467Z,32.27
2018-06-12T04:24:54.210Z,33.23
2018-06-12T04:27:27.442Z,37.30
2018-06-12T04:29:59.485Z,37.87
2018-06-12T04:32:31.502Z,36.37
2018-06-12T04:35:04.713Z,36.43
2018-06-12T04:37:40.396Z,39.30
2018-06-12T04:40:13.593Z,39.23
2018-06-12T04:42:48.371Z,40.50
2018-06-12T04:45:21.449Z,39.80
2018-06-12T04:47:52.731Z,37.37
2018-06-12T04:50:25.214Z,42.27
2018-06-12T04:52:57.010Z,41.77
2018-06-12T04:55:29.603Z,40.13
2018-06-12T04:58:01.944Z,41.60
2018-06-12T05:00:34.057Z,36.70
2018-06-12T05:03:05.031Z,39.13
2018-06-12T05:05:44.672Z,39.10
2018-06-12T05:08:16.523Z,37.97
2018-06-12T05:10:49.115Z,39.20
2018-06-12T05:13:18.688Z,41.20
2018-06-12T05:15:50.498Z,41.63
2018-06-12T05:18:22.939Z,39.90
2018-06-12T05:20:55.947Z,40.00
2018-06-12T05:23:28.718Z,39.97
2018-06-12T05:26:01.568Z,42.33
2018-06-12T05:28:32.602Z,42.37
2018-06-12T05:31:04.202Z,39.63
2018-06-12T05:33:34.663Z,42.57
2018-06-12T05:36:08.010Z,41.33
2018-06-12T05:38:39.257Z,41.10
2018-06-12T05:41:10.819Z,41.90
2018-06-12T05:43:43.114Z,46.07
2018-06-12T05:46:16.576Z,40.37
2018-06-12T05:48:49.810Z,43.77
2018-06-12T05:51:21.944Z,44.00
2018-06-12T05:53:54.996Z,43.07
2018-06-12T05:56:25.792Z,45.70
2018-06-12T05:58:58.134Z,45.37
2018-06-12T06:01:29.953Z,43.97
2018-06-12T06:04:01.929Z,42.93
2018-06-12T06:06:40.586Z,44.17
2018-06-12T06:09:13.361Z,45.77
2018-06-12T06:11:45.497Z,43.27
2018-06-12T06:14:15.949Z,41.80
2018-06-12T06:16:48.599Z,47.20
2018-06-12T06:19:20.626Z,45.60
2018-06-12T06:21:50.849Z,45.13
2018-06-12T06:24:22.306Z,50.43
2018-06-12T06:26:54.924Z,45.60
2018-06-12T06:29:25.023Z,46.10
2018-06-12T06:31:58.821Z,43.33
2018-06-12T06:34:32.205Z,49.07
2018-06-12T06:37:04.051Z,46.20
2018-06-12T06:39:34.521Z,46.50
2018-06-12T06:44:45.210Z,46.07
2018-06-12T06:49:52.719Z,41.57
2018-06-12T06:52:22.927Z,45.60
2018-06-12T06:54:53.940Z,45.73
2018-06-12T06:57:25.263Z,45.73
2018-06-12T07:16:30.799Z,38.47
2018-06-12T07:19:00.522Z,36.40
2018-06-12T07:21:30.096Z,34.77
2018-06-12T07:23:59.831Z,38.80
2018-06-12T07:26:30.367Z,36.47
2018-06-12T07:29:02.063Z,32.60
2018-06-12T07:31:32.850Z,34.17
2018-06-12T07:34:03.438Z,34.37
2018-06-12T07:36:33.751Z,36.67
2018-06-12T07:39:04.126Z,34.63
2018-06-12T07:41:33.865Z,37.23
